sensor_id;sensor_type;location;lat;lon;timestamp;temperature;humidity
51908;DHT22;39320;53.214;6.556;2022-08-14T00:01:09;25.10;81.00
51908;DHT22;39320;53.214;6.556;2022-08-14T00:03:36;25.10;81.10
51908;DHT22;39320;53.214;6.556;2022-08-14T00:06:03;25.10;81.30
51908;DHT22;39320;53.214;6.556;2022-08-14T00:08:29;25.10;81.60
51908;DHT22;39320;53.214;6.556;2022-08-14T00:10:55;25.10;81.70
51908;DHT22;39320;53.214;6.556;2022-08-14T00:13:23;25.10;81.80
51908;DHT22;39320;53.214;6.556;2022-08-14T00:15:51;25.10;81.70
51908;DHT22;39320;53.214;6.556;2022-08-14T00:18:21;25.10;81.80
51908;DHT22;39320;53.214;6.556;2022-08-14T00:20:48;25.10;81.90
51908;DHT22;39320;53.214;6.556;2022-08-14T00:23:15;25.10;81.90
51908;DHT22;39320;53.214;6.556;2022-08-14T00:25:43;25.10;82.00
51908;DHT22;39320;53.214;6.556;2022-08-14T00:28:11;25.10;82.20
51908;DHT22;39320;53.214;6.556;2022-08-14T00:30:37;25.00;82.60
51908;DHT22;39320;53.214;6.556;2022-08-14T00:33:03;24.90;82.70
51908;DHT22;39320;53.214;6.556;2022-08-14T00:35:30;24.90;83.00
51908;DHT22;39320;53.214;6.556;2022-08-14T00:37:56;25.00;83.10
51908;DHT22;39320;53.214;6.556;2022-08-14T00:40:22;25.00;83.40
51908;DHT22;39320;53.214;6.556;2022-08-14T00:42:48;24.90;83.70
51908;DHT22;39320;53.214;6.556;2022-08-14T00:45:15;24.90;84.00
51908;DHT22;39320;53.214;6.556;2022-08-14T00:47:43;24.80;84.40
51908;DHT22;39320;53.214;6.556;2022-08-14T00:50:12;24.70;84.60
51908;DHT22;39320;53.214;6.556;2022-08-14T00:52:38;24.70;84.90
51908;DHT22;39320;53.214;6.556;2022-08-14T00:55:06;24.60;85.10
51908;DHT22;39320;53.214;6.556;2022-08-14T00:57:34;24.60;85.30
51908;DHT22;39320;53.214;6.556;2022-08-14T01:00:02;24.60;85.50
51908;DHT22;39320;53.214;6.556;2022-08-14T01:02:29;24.60;85.70
51908;DHT22;39320;53.214;6.556;2022-08-14T01:04:57;24.60;85.90
51908;DHT22;39320;53.214;6.556;2022-08-14T01:07:25;24.60;85.80
51908;DHT22;39320;53.214;6.556;2022-08-14T01:09:53;24.70;86.60
51908;DHT22;39320;53.214;6.556;2022-08-14T01:12:20;24.70;85.70
51908;DHT22;39320;53.214;6.556;2022-08-14T01:14:47;24.70;85.70
51908;DHT22;39320;53.214;6.556;2022-08-14T01:17:20;24.70;85.70
51908;DHT22;39320;53.214;6.556;2022-08-14T01:19:46;24.70;85.80
51908;DHT22;39320;53.214;6.556;2022-08-14T01:22:30;24.70;85.90
51908;DHT22;39320;53.214;6.556;2022-08-14T01:24:56;24.60;86.00
51908;DHT22;39320;53.214;6.556;2022-08-14T01:27:22;24.60;86.10
51908;DHT22;39320;53.214;6.556;2022-08-14T01:29:51;24.60;86.40
51908;DHT22;39320;53.214;6.556;2022-08-14T01:32:18;24.60;86.60
51908;DHT22;39320;53.214;6.556;2022-08-14T01:34:49;24.60;86.70
51908;DHT22;39320;53.214;6.556;2022-08-14T01:37:17;24.60;86.60
51908;DHT22;39320;53.214;6.556;2022-08-14T01:39:43;24.60;86.70
51908;DHT22;39320;53.214;6.556;2022-08-14T01:42:08;24.50;86.90
51908;DHT22;39320;53.214;6.556;2022-08-14T01:44:34;24.50;86.90
51908;DHT22;39320;53.214;6.556;2022-08-14T01:47:05;24.50;87.00
51908;DHT22;39320;53.214;6.556;2022-08-14T01:49:36;24.60;87.00
51908;DHT22;39320;53.214;6.556;2022-08-14T01:52:03;24.50;87.10
51908;DHT22;39320;53.214;6.556;2022-08-14T01:54:28;24.50;87.30
51908;DHT22;39320;53.214;6.556;2022-08-14T01:56:55;24.50;87.30
51908;DHT22;39320;53.214;6.556;2022-08-14T01:59:24;24.60;87.50
51908;DHT22;39320;53.214;6.556;2022-08-14T02:01:52;24.60;87.40
51908;DHT22;39320;53.214;6.556;2022-08-14T02:04:19;24.60;87.50
51908;DHT22;39320;53.214;6.556;2022-08-14T02:06:47;24.50;87.60
51908;DHT22;39320;53.214;6.556;2022-08-14T02:09:15;24.50;88.50
51908;DHT22;39320;53.214;6.556;2022-08-14T02:11:41;24.50;88.00
51908;DHT22;39320;53.214;6.556;2022-08-14T02:14:09;24.40;88.10
51908;DHT22;39320;53.214;6.556;2022-08-14T02:16:41;24.50;88.10
51908;DHT22;39320;53.214;6.556;2022-08-14T02:19:09;24.50;88.10
51908;DHT22;39320;53.214;6.556;2022-08-14T02:21:37;24.50;88.00
51908;DHT22;39320;53.214;6.556;2022-08-14T02:24:05;24.50;88.00
51908;DHT22;39320;53.214;6.556;2022-08-14T02:26:35;24.50;88.00
51908;DHT22;39320;53.214;6.556;2022-08-14T02:29:07;24.50;88.00
51908;DHT22;39320;53.214;6.556;2022-08-14T02:31:35;24.50;87.90
51908;DHT22;39320;53.214;6.556;2022-08-14T02:34:32;24.50;87.80
51908;DHT22;39320;53.214;6.556;2022-08-14T02:37:17;24.50;88.00
51908;DHT22;39320;53.214;6.556;2022-08-14T02:39:45;24.40;88.20
51908;DHT22;39320;53.214;6.556;2022-08-14T02:42:14;24.40;88.40
51908;DHT22;39320;53.214;6.556;2022-08-14T02:44:42;24.40;88.30
51908;DHT22;39320;53.214;6.556;2022-08-14T02:47:09;24.30;88.40
51908;DHT22;39320;53.214;6.556;2022-08-14T02:49:36;24.20;88.80
51908;DHT22;39320;53.214;6.556;2022-08-14T02:52:03;24.20;89.10
51908;DHT22;39320;53.214;6.556;2022-08-14T02:54:32;24.10;89.10
51908;DHT22;39320;53.214;6.556;2022-08-14T02:56:59;24.10;89.20
51908;DHT22;39320;53.214;6.556;2022-08-14T02:59:27;24.10;89.50
51908;DHT22;39320;53.214;6.556;2022-08-14T03:01:56;24.10;89.70
51908;DHT22;39320;53.214;6.556;2022-08-14T03:04:22;24.10;89.70
51908;DHT22;39320;53.214;6.556;2022-08-14T03:06:49;24.10;89.60
51908;DHT22;39320;53.214;6.556;2022-08-14T03:09:15;24.00;89.60
51908;DHT22;39320;53.214;6.556;2022-08-14T03:11:41;24.00;89.70
51908;DHT22;39320;53.214;6.556;2022-08-14T03:14:09;24.10;89.60
51908;DHT22;39320;53.214;6.556;2022-08-14T03:16:37;24.10;89.70
51908;DHT22;39320;53.214;6.556;2022-08-14T03:19:04;24.00;89.90
51908;DHT22;39320;53.214;6.556;2022-08-14T03:21:32;24.10;89.90
51908;DHT22;39320;53.214;6.556;2022-08-14T03:23:59;24.00;89.70
51908;DHT22;39320;53.214;6.556;2022-08-14T03:26:45;24.00;89.70
51908;DHT22;39320;53.214;6.556;2022-08-14T03:29:13;24.00;89.70
51908;DHT22;39320;53.214;6.556;2022-08-14T03:31:39;24.00;89.70
51908;DHT22;39320;53.214;6.556;2022-08-14T03:34:07;24.00;89.70
51908;DHT22;39320;53.214;6.556;2022-08-14T03:36:37;24.00;89.80
51908;DHT22;39320;53.214;6.556;2022-08-14T03:39:05;24.00;89.80
51908;DHT22;39320;53.214;6.556;2022-08-14T03:41:31;23.90;89.80
51908;DHT22;39320;53.214;6.556;2022-08-14T03:43:59;23.90;90.00
51908;DHT22;39320;53.214;6.556;2022-08-14T03:46:36;23.90;90.10
51908;DHT22;39320;53.214;6.556;2022-08-14T03:49:04;23.90;90.00
51908;DHT22;39320;53.214;6.556;2022-08-14T03:51:31;23.90;90.10
51908;DHT22;39320;53.214;6.556;2022-08-14T03:54:00;23.90;90.10
51908;DHT22;39320;53.214;6.556;2022-08-14T03:56:27;24.00;90.10
51908;DHT22;39320;53.214;6.556;2022-08-14T03:58:56;24.00;90.10
51908;DHT22;39320;53.214;6.556;2022-08-14T04:01:23;23.90;90.00
51908;DHT22;39320;53.214;6.556;2022-08-14T04:03:52;24.00;90.10
51908;DHT22;39320;53.214;6.556;2022-08-14T04:06:18;24.00;90.10
51908;DHT22;39320;53.214;6.556;2022-08-14T04:08:45;23.90;90.10
51908;DHT22;39320;53.214;6.556;2022-08-14T04:11:12;24.00;90.10
51908;DHT22;39320;53.214;6.556;2022-08-14T04:13:41;23.90;90.00
51908;DHT22;39320;53.214;6.556;2022-08-14T04:16:18;23.90;90.10
51908;DHT22;39320;53.214;6.556;2022-08-14T04:18:47;23.90;90.10
51908;DHT22;39320;53.214;6.556;2022-08-14T04:21:15;23.90;90.20
51908;DHT22;39320;53.214;6.556;2022-08-14T04:23:41;23.90;90.20
51908;DHT22;39320;53.214;6.556;2022-08-14T04:26:12;23.90;90.20
51908;DHT22;39320;53.214;6.556;2022-08-14T04:28:39;23.90;90.20
51908;DHT22;39320;53.214;6.556;2022-08-14T04:31:05;23.80;90.20
51908;DHT22;39320;53.214;6.556;2022-08-14T04:33:32;23.80;90.20
51908;DHT22;39320;53.214;6.556;2022-08-14T04:35:58;23.80;90.20
51908;DHT22;39320;53.214;6.556;2022-08-14T04:38:24;23.80;90.40
51908;DHT22;39320;53.214;6.556;2022-08-14T04:41:09;23.80;90.40
51908;DHT22;39320;53.214;6.556;2022-08-14T04:43:53;23.70;90.40
51908;DHT22;39320;53.214;6.556;2022-08-14T04:46:21;23.70;90.40
51908;DHT22;39320;53.214;6.556;2022-08-14T04:48:48;23.70;90.40
51908;DHT22;39320;53.214;6.556;2022-08-14T04:51:17;23.70;90.50
51908;DHT22;39320;53.214;6.556;2022-08-14T04:53:45;23.70;90.60
51908;DHT22;39320;53.214;6.556;2022-08-14T04:56:14;23.70;90.60
51908;DHT22;39320;53.214;6.556;2022-08-14T04:58:40;23.70;90.60
51908;DHT22;39320;53.214;6.556;2022-08-14T05:01:08;23.70;90.60
51908;DHT22;39320;53.214;6.556;2022-08-14T05:03:35;23.70;90.60
51908;DHT22;39320;53.214;6.556;2022-08-14T05:06:04;23.70;90.50
51908;DHT22;39320;53.214;6.556;2022-08-14T05:08:30;23.70;90.60
51908;DHT22;39320;53.214;6.556;2022-08-14T05:10:58;23.70;90.70
51908;DHT22;39320;53.214;6.556;2022-08-14T05:13:27;23.70;91.00
51908;DHT22;39320;53.214;6.556;2022-08-14T05:15:55;23.70;90.60
51908;DHT22;39320;53.214;6.556;2022-08-14T05:18:28;23.70;90.70
51908;DHT22;39320;53.214;6.556;2022-08-14T05:20:58;23.70;90.70
51908;DHT22;39320;53.214;6.556;2022-08-14T05:23:25;23.70;90.70
51908;DHT22;39320;53.214;6.556;2022-08-14T05:25:54;23.70;90.70
51908;DHT22;39320;53.214;6.556;2022-08-14T05:28:25;23.70;90.70
51908;DHT22;39320;53.214;6.556;2022-08-14T05:31:05;23.80;90.70
51908;DHT22;39320;53.214;6.556;2022-08-14T05:33:32;23.70;90.70
51908;DHT22;39320;53.214;6.556;2022-08-14T05:36:00;23.80;90.70
51908;DHT22;39320;53.214;6.556;2022-08-14T05:38:34;23.80;90.70
51908;DHT22;39320;53.214;6.556;2022-08-14T05:41:16;23.70;90.70
51908;DHT22;39320;53.214;6.556;2022-08-14T05:43:43;23.70;90.80
51908;DHT22;39320;53.214;6.556;2022-08-14T05:46:11;23.70;90.80
51908;DHT22;39320;53.214;6.556;2022-08-14T05:48:37;23.70;90.80
51908;DHT22;39320;53.214;6.556;2022-08-14T05:51:04;23.70;90.80
51908;DHT22;39320;53.214;6.556;2022-08-14T05:53:29;23.80;90.80
51908;DHT22;39320;53.214;6.556;2022-08-14T05:55:56;23.80;90.70
51908;DHT22;39320;53.214;6.556;2022-08-14T05:58:24;23.80;90.70
51908;DHT22;39320;53.214;6.556;2022-08-14T06:00:50;23.80;90.60
51908;DHT22;39320;53.214;6.556;2022-08-14T06:03:18;23.80;90.50
51908;DHT22;39320;53.214;6.556;2022-08-14T06:05:49;23.90;90.70
51908;DHT22;39320;53.214;6.556;2022-08-14T06:08:16;23.80;90.70
51908;DHT22;39320;53.214;6.556;2022-08-14T06:10:42;23.90;90.70
51908;DHT22;39320;53.214;6.556;2022-08-14T06:13:08;23.90;90.70
51908;DHT22;39320;53.214;6.556;2022-08-14T06:15:34;23.90;90.80
51908;DHT22;39320;53.214;6.556;2022-08-14T06:17:59;24.00;90.80
51908;DHT22;39320;53.214;6.556;2022-08-14T06:20:26;24.00;90.80
51908;DHT22;39320;53.214;6.556;2022-08-14T06:22:52;24.00;90.80
51908;DHT22;39320;53.214;6.556;2022-08-14T06:25:18;24.00;90.80
51908;DHT22;39320;53.214;6.556;2022-08-14T06:27:45;24.10;90.90
51908;DHT22;39320;53.214;6.556;2022-08-14T06:30:17;24.10;90.90
51908;DHT22;39320;53.214;6.556;2022-08-14T06:32:43;24.10;90.90
51908;DHT22;39320;53.214;6.556;2022-08-14T06:35:10;24.10;91.00
51908;DHT22;39320;53.214;6.556;2022-08-14T06:37:40;24.10;91.00
51908;DHT22;39320;53.214;6.556;2022-08-14T06:40:07;24.10;91.10
51908;DHT22;39320;53.214;6.556;2022-08-14T06:42:33;24.20;91.50
51908;DHT22;39320;53.214;6.556;2022-08-14T06:44:59;24.20;91.20
51908;DHT22;39320;53.214;6.556;2022-08-14T06:47:26;24.30;91.20
51908;DHT22;39320;53.214;6.556;2022-08-14T06:49:52;24.20;91.20
51908;DHT22;39320;53.214;6.556;2022-08-14T06:52:17;24.30;91.20
51908;DHT22;39320;53.214;6.556;2022-08-14T06:54:43;24.20;91.30
51908;DHT22;39320;53.214;6.556;2022-08-14T06:57:09;24.20;91.40
51908;DHT22;39320;53.214;6.556;2022-08-14T06:59:35;24.20;91.40
51908;DHT22;39320;53.214;6.556;2022-08-14T07:02:00;24.20;91.50
51908;DHT22;39320;53.214;6.556;2022-08-14T07:04:45;24.30;91.50
51908;DHT22;39320;53.214;6.556;2022-08-14T07:07:39;24.30;91.50
51908;DHT22;39320;53.214;6.556;2022-08-14T07:10:07;24.30;91.90
51908;DHT22;39320;53.214;6.556;2022-08-14T07:12:33;24.40;91.60
51908;DHT22;39320;53.214;6.556;2022-08-14T07:15:00;24.40;91.60
51908;DHT22;39320;53.214;6.556;2022-08-14T07:17:26;24.40;91.60
51908;DHT22;39320;53.214;6.556;2022-08-14T07:19:52;24.50;91.60
51908;DHT22;39320;53.214;6.556;2022-08-14T07:22:18;24.50;91.30
51908;DHT22;39320;53.214;6.556;2022-08-14T07:24:43;24.60;91.20
51908;DHT22;39320;53.214;6.556;2022-08-14T07:27:09;24.60;91.10
51908;DHT22;39320;53.214;6.556;2022-08-14T07:29:35;24.60;91.10
51908;DHT22;39320;53.214;6.556;2022-08-14T07:32:02;24.70;91.20
51908;DHT22;39320;53.214;6.556;2022-08-14T07:34:27;24.70;91.20
51908;DHT22;39320;53.214;6.556;2022-08-14T07:36:56;24.80;91.30
51908;DHT22;39320;53.214;6.556;2022-08-14T07:39:22;24.80;91.30
51908;DHT22;39320;53.214;6.556;2022-08-14T07:41:48;24.90;91.10
51908;DHT22;39320;53.214;6.556;2022-08-14T07:44:14;24.90;90.90
51908;DHT22;39320;53.214;6.556;2022-08-14T07:46:39;24.90;91.00
51908;DHT22;39320;53.214;6.556;2022-08-14T07:49:05;24.90;91.20
51908;DHT22;39320;53.214;6.556;2022-08-14T07:51:32;25.00;91.20
51908;DHT22;39320;53.214;6.556;2022-08-14T07:53:58;24.90;91.10
51908;DHT22;39320;53.214;6.556;2022-08-14T07:56:24;24.90;91.20
51908;DHT22;39320;53.214;6.556;2022-08-14T07:58:50;24.90;91.00
51908;DHT22;39320;53.214;6.556;2022-08-14T08:01:17;25.00;91.10
51908;DHT22;39320;53.214;6.556;2022-08-14T08:03:46;25.00;91.20
51908;DHT22;39320;53.214;6.556;2022-08-14T08:06:15;25.00;91.30
51908;DHT22;39320;53.214;6.556;2022-08-14T08:08:42;25.10;91.30
51908;DHT22;39320;53.214;6.556;2022-08-14T08:11:09;25.10;91.30
51908;DHT22;39320;53.214;6.556;2022-08-14T08:13:40;25.10;91.30
51908;DHT22;39320;53.214;6.556;2022-08-14T08:16:07;25.20;91.40
51908;DHT22;39320;53.214;6.556;2022-08-14T08:18:33;25.20;91.40
51908;DHT22;39320;53.214;6.556;2022-08-14T08:20:59;25.30;91.30
51908;DHT22;39320;53.214;6.556;2022-08-14T08:23:26;25.30;91.30
51908;DHT22;39320;53.214;6.556;2022-08-14T08:25:54;25.30;91.20
51908;DHT22;39320;53.214;6.556;2022-08-14T08:28:25;25.30;91.10
51908;DHT22;39320;53.214;6.556;2022-08-14T08:30:58;25.30;91.10
51908;DHT22;39320;53.214;6.556;2022-08-14T08:33:26;25.40;91.10
51908;DHT22;39320;53.214;6.556;2022-08-14T08:35:56;25.40;91.00
51908;DHT22;39320;53.214;6.556;2022-08-14T08:38:24;25.40;91.00
51908;DHT22;39320;53.214;6.556;2022-08-14T08:40:52;25.40;90.80
51908;DHT22;39320;53.214;6.556;2022-08-14T08:43:23;25.40;90.80
51908;DHT22;39320;53.214;6.556;2022-08-14T08:45:57;25.40;90.50
51908;DHT22;39320;53.214;6.556;2022-08-14T08:48:26;25.40;90.50
51908;DHT22;39320;53.214;6.556;2022-08-14T08:50:57;25.40;90.30
51908;DHT22;39320;53.214;6.556;2022-08-14T08:53:29;25.40;90.30
51908;DHT22;39320;53.214;6.556;2022-08-14T08:55:56;25.40;90.40
51908;DHT22;39320;53.214;6.556;2022-08-14T08:58:21;25.40;90.30
51908;DHT22;39320;53.214;6.556;2022-08-14T09:00:50;25.40;90.10
51908;DHT22;39320;53.214;6.556;2022-08-14T09:03:20;25.50;90.10
51908;DHT22;39320;53.214;6.556;2022-08-14T09:05:56;25.50;89.90
51908;DHT22;39320;53.214;6.556;2022-08-14T09:08:28;25.50;90.10
51908;DHT22;39320;53.214;6.556;2022-08-14T09:10:55;25.50;89.50
51908;DHT22;39320;53.214;6.556;2022-08-14T09:13:22;25.50;89.30
51908;DHT22;39320;53.214;6.556;2022-08-14T09:15:51;25.50;89.10
51908;DHT22;39320;53.214;6.556;2022-08-14T09:18:19;25.60;88.90
51908;DHT22;39320;53.214;6.556;2022-08-14T09:20:48;25.60;88.90
51908;DHT22;39320;53.214;6.556;2022-08-14T09:23:14;25.60;88.90
51908;DHT22;39320;53.214;6.556;2022-08-14T09:25:44;25.60;89.00
51908;DHT22;39320;53.214;6.556;2022-08-14T09:28:11;25.60;88.70
51908;DHT22;39320;53.214;6.556;2022-08-14T09:30:40;25.60;88.40
51908;DHT22;39320;53.214;6.556;2022-08-14T09:33:21;25.60;89.40
51908;DHT22;39320;53.214;6.556;2022-08-14T09:38:45;25.60;87.80
51908;DHT22;39320;53.214;6.556;2022-08-14T09:41:41;25.70;88.00
51908;DHT22;39320;53.214;6.556;2022-08-14T09:44:55;25.70;88.50
51908;DHT22;39320;53.214;6.556;2022-08-14T09:47:17;25.70;87.50
51908;DHT22;39320;53.214;6.556;2022-08-14T09:49:43;25.70;87.90
51908;DHT22;39320;53.214;6.556;2022-08-14T09:52:14;25.70;87.90
51908;DHT22;39320;53.214;6.556;2022-08-14T09:54:47;25.70;88.30
51908;DHT22;39320;53.214;6.556;2022-08-14T09:57:42;25.80;88.10
51908;DHT22;39320;53.214;6.556;2022-08-14T10:00:13;25.80;89.20
51908;DHT22;39320;53.214;6.556;2022-08-14T10:02:54;25.80;88.20
51908;DHT22;39320;53.214;6.556;2022-08-14T10:05:33;25.80;88.20
51908;DHT22;39320;53.214;6.556;2022-08-14T10:08:00;25.90;88.40
51908;DHT22;39320;53.214;6.556;2022-08-14T10:10:34;25.80;88.20
51908;DHT22;39320;53.214;6.556;2022-08-14T10:13:02;25.90;88.20
51908;DHT22;39320;53.214;6.556;2022-08-14T10:15:30;26.00;88.30
51908;DHT22;39320;53.214;6.556;2022-08-14T10:20:38;26.00;88.00
51908;DHT22;39320;53.214;6.556;2022-08-14T10:23:14;26.00;88.50
51908;DHT22;39320;53.214;6.556;2022-08-14T10:25:47;26.10;87.40
51908;DHT22;39320;53.214;6.556;2022-08-14T10:28:16;26.10;87.40
51908;DHT22;39320;53.214;6.556;2022-08-14T10:30:43;26.10;87.30
51908;DHT22;39320;53.214;6.556;2022-08-14T10:33:26;26.10;87.40
51908;DHT22;39320;53.214;6.556;2022-08-14T10:35:54;26.10;86.90
51908;DHT22;39320;53.214;6.556;2022-08-14T10:38:34;26.20;87.10
51908;DHT22;39320;53.214;6.556;2022-08-14T10:41:14;26.20;87.00
51908;DHT22;39320;53.214;6.556;2022-08-14T10:43:42;26.20;86.60
51908;DHT22;39320;53.214;6.556;2022-08-14T10:46:16;26.20;86.50
51908;DHT22;39320;53.214;6.556;2022-08-14T10:48:56;26.30;85.90
51908;DHT22;39320;53.214;6.556;2022-08-14T10:51:26;26.30;85.80
51908;DHT22;39320;53.214;6.556;2022-08-14T10:53:54;26.30;85.70
51908;DHT22;39320;53.214;6.556;2022-08-14T10:56:28;26.30;85.30
51908;DHT22;39320;53.214;6.556;2022-08-14T10:59:07;26.40;84.60
51908;DHT22;39320;53.214;6.556;2022-08-14T11:01:37;26.40;84.80
51908;DHT22;39320;53.214;6.556;2022-08-14T11:04:03;26.50;84.50
51908;DHT22;39320;53.214;6.556;2022-08-14T11:06:29;26.50;84.50
51908;DHT22;39320;53.214;6.556;2022-08-14T11:08:56;26.50;84.60
51908;DHT22;39320;53.214;6.556;2022-08-14T11:11:24;26.60;84.90
51908;DHT22;39320;53.214;6.556;2022-08-14T11:13:54;26.60;84.80
51908;DHT22;39320;53.214;6.556;2022-08-14T11:16:22;26.60;84.60
51908;DHT22;39320;53.214;6.556;2022-08-14T11:18:49;26.70;84.00
51908;DHT22;39320;53.214;6.556;2022-08-14T11:21:18;26.80;83.40
51908;DHT22;39320;53.214;6.556;2022-08-14T11:23:46;26.90;83.10
51908;DHT22;39320;53.214;6.556;2022-08-14T11:26:15;26.90;83.20
51908;DHT22;39320;53.214;6.556;2022-08-14T11:28:48;26.90;83.40
51908;DHT22;39320;53.214;6.556;2022-08-14T11:31:18;26.90;83.00
51908;DHT22;39320;53.214;6.556;2022-08-14T11:33:50;26.90;83.00
51908;DHT22;39320;53.214;6.556;2022-08-14T11:36:23;26.90;82.80
51908;DHT22;39320;53.214;6.556;2022-08-14T11:38:53;27.00;82.60
51908;DHT22;39320;53.214;6.556;2022-08-14T11:41:19;27.00;82.50
51908;DHT22;39320;53.214;6.556;2022-08-14T11:43:48;27.10;82.40
51908;DHT22;39320;53.214;6.556;2022-08-14T11:46:14;27.20;82.30
51908;DHT22;39320;53.214;6.556;2022-08-14T11:51:16;27.30;81.50
51908;DHT22;39320;53.214;6.556;2022-08-14T11:54:00;27.30;80.80
51908;DHT22;39320;53.214;6.556;2022-08-14T11:56:35;27.40;80.50
51908;DHT22;39320;53.214;6.556;2022-08-14T11:59:01;27.40;80.90
51908;DHT22;39320;53.214;6.556;2022-08-14T12:01:28;27.40;80.80
51908;DHT22;39320;53.214;6.556;2022-08-14T12:04:16;27.50;80.30
51908;DHT22;39320;53.214;6.556;2022-08-14T12:06:51;27.50;80.20
51908;DHT22;39320;53.214;6.556;2022-08-14T12:09:50;27.50;80.10
51908;DHT22;39320;53.214;6.556;2022-08-14T12:12:22;27.50;79.90
51908;DHT22;39320;53.214;6.556;2022-08-14T12:14:49;27.60;79.40
51908;DHT22;39320;53.214;6.556;2022-08-14T12:17:18;27.60;79.30
51908;DHT22;39320;53.214;6.556;2022-08-14T12:22:36;27.80;79.00
51908;DHT22;39320;53.214;6.556;2022-08-14T12:25:05;27.80;78.70
51908;DHT22;39320;53.214;6.556;2022-08-14T12:27:35;27.90;79.10
51908;DHT22;39320;53.214;6.556;2022-08-14T12:30:01;27.90;78.30
51908;DHT22;39320;53.214;6.556;2022-08-14T12:32:43;28.00;78.00
51908;DHT22;39320;53.214;6.556;2022-08-14T12:35:12;28.00;77.10
51908;DHT22;39320;53.214;6.556;2022-08-14T12:37:49;27.90;77.40
51908;DHT22;39320;53.214;6.556;2022-08-14T12:40:16;27.90;77.20
51908;DHT22;39320;53.214;6.556;2022-08-14T12:42:43;28.00;77.70
51908;DHT22;39320;53.214;6.556;2022-08-14T12:45:10;28.10;77.80
51908;DHT22;39320;53.214;6.556;2022-08-14T12:47:39;28.20;77.70
51908;DHT22;39320;53.214;6.556;2022-08-14T12:50:05;28.20;77.00
51908;DHT22;39320;53.214;6.556;2022-08-14T12:52:34;28.30;76.50
51908;DHT22;39320;53.214;6.556;2022-08-14T12:55:03;28.40;76.40
51908;DHT22;39320;53.214;6.556;2022-08-14T12:57:38;28.40;76.50
51908;DHT22;39320;53.214;6.556;2022-08-14T13:00:18;28.50;75.90
51908;DHT22;39320;53.214;6.556;2022-08-14T13:02:47;28.40;75.70
51908;DHT22;39320;53.214;6.556;2022-08-14T13:05:20;28.40;75.80
51908;DHT22;39320;53.214;6.556;2022-08-14T13:07:50;28.50;75.80
51908;DHT22;39320;53.214;6.556;2022-08-14T13:10:17;28.50;75.70
51908;DHT22;39320;53.214;6.556;2022-08-14T13:12:46;28.50;75.60
51908;DHT22;39320;53.214;6.556;2022-08-14T13:15:13;28.50;75.00
51908;DHT22;39320;53.214;6.556;2022-08-14T13:17:48;28.50;75.00
51908;DHT22;39320;53.214;6.556;2022-08-14T13:20:15;28.60;75.20
51908;DHT22;39320;53.214;6.556;2022-08-14T13:22:42;28.60;74.40
51908;DHT22;39320;53.214;6.556;2022-08-14T13:25:12;28.70;74.40
51908;DHT22;39320;53.214;6.556;2022-08-14T13:27:39;28.70;73.90
51908;DHT22;39320;53.214;6.556;2022-08-14T13:30:08;28.70;74.10
51908;DHT22;39320;53.214;6.556;2022-08-14T13:32:35;28.60;74.40
51908;DHT22;39320;53.214;6.556;2022-08-14T13:35:05;28.60;74.20
51908;DHT22;39320;53.214;6.556;2022-08-14T13:37:30;28.60;73.60
51908;DHT22;39320;53.214;6.556;2022-08-14T13:39:56;28.60;73.50
51908;DHT22;39320;53.214;6.556;2022-08-14T13:42:23;28.60;73.80
51908;DHT22;39320;53.214;6.556;2022-08-14T13:44:52;28.60;74.10
51908;DHT22;39320;53.214;6.556;2022-08-14T13:47:24;28.70;73.90
51908;DHT22;39320;53.214;6.556;2022-08-14T13:49:54;28.80;73.30
51908;DHT22;39320;53.214;6.556;2022-08-14T13:52:21;28.90;73.40
51908;DHT22;39320;53.214;6.556;2022-08-14T13:54:49;28.90;73.00
51908;DHT22;39320;53.214;6.556;2022-08-14T13:57:18;28.90;72.70
51908;DHT22;39320;53.214;6.556;2022-08-14T13:59:46;28.90;72.80
51908;DHT22;39320;53.214;6.556;2022-08-14T14:02:16;29.00;72.80
51908;DHT22;39320;53.214;6.556;2022-08-14T14:04:45;29.20;72.60
51908;DHT22;39320;53.214;6.556;2022-08-14T14:07:14;29.20;72.20
51908;DHT22;39320;53.214;6.556;2022-08-14T14:09:46;29.20;72.10
51908;DHT22;39320;53.214;6.556;2022-08-14T14:12:13;29.20;71.60
51908;DHT22;39320;53.214;6.556;2022-08-14T14:14:41;29.30;71.60
51908;DHT22;39320;53.214;6.556;2022-08-14T14:17:09;29.40;71.50
51908;DHT22;39320;53.214;6.556;2022-08-14T14:19:37;29.40;71.60
51908;DHT22;39320;53.214;6.556;2022-08-14T14:22:06;29.50;71.40
51908;DHT22;39320;53.214;6.556;2022-08-14T14:24:32;29.60;71.40
51908;DHT22;39320;53.214;6.556;2022-08-14T14:27:01;29.70;71.40
51908;DHT22;39320;53.214;6.556;2022-08-14T14:29:32;29.70;71.00
51908;DHT22;39320;53.214;6.556;2022-08-14T14:31:59;29.80;71.00
51908;DHT22;39320;53.214;6.556;2022-08-14T14:34:27;29.90;70.50
51908;DHT22;39320;53.214;6.556;2022-08-14T14:36:53;30.00;70.40
51908;DHT22;39320;53.214;6.556;2022-08-14T14:39:22;30.10;70.20
51908;DHT22;39320;53.214;6.556;2022-08-14T14:41:54;30.10;69.80
51908;DHT22;39320;53.214;6.556;2022-08-14T14:44:25;30.10;68.80
51908;DHT22;39320;53.214;6.556;2022-08-14T14:46:56;30.10;68.30
51908;DHT22;39320;53.214;6.556;2022-08-14T14:49:23;30.20;68.60
51908;DHT22;39320;53.214;6.556;2022-08-14T14:51:49;30.20;68.70
51908;DHT22;39320;53.214;6.556;2022-08-14T14:54:17;30.30;68.40
51908;DHT22;39320;53.214;6.556;2022-08-14T14:56:44;30.30;68.00
51908;DHT22;39320;53.214;6.556;2022-08-14T14:59:13;30.40;68.40
51908;DHT22;39320;53.214;6.556;2022-08-14T15:01:42;30.40;68.40
51908;DHT22;39320;53.214;6.556;2022-08-14T15:04:09;30.40;68.30
51908;DHT22;39320;53.214;6.556;2022-08-14T15:06:35;30.50;67.50
51908;DHT22;39320;53.214;6.556;2022-08-14T15:09:02;30.50;67.80
51908;DHT22;39320;53.214;6.556;2022-08-14T15:11:28;30.50;68.00
51908;DHT22;39320;53.214;6.556;2022-08-14T15:13:54;30.60;67.90
51908;DHT22;39320;53.214;6.556;2022-08-14T15:16:20;30.70;67.80
51908;DHT22;39320;53.214;6.556;2022-08-14T15:18:46;30.70;67.30
51908;DHT22;39320;53.214;6.556;2022-08-14T15:21:12;30.70;67.00
51908;DHT22;39320;53.214;6.556;2022-08-14T15:23:38;30.80;66.90
51908;DHT22;39320;53.214;6.556;2022-08-14T15:26:06;30.90;67.30
51908;DHT22;39320;53.214;6.556;2022-08-14T15:28:32;30.90;66.30
51908;DHT22;39320;53.214;6.556;2022-08-14T15:31:01;30.90;65.70
51908;DHT22;39320;53.214;6.556;2022-08-14T15:33:27;31.00;66.60
51908;DHT22;39320;53.214;6.556;2022-08-14T15:36:11;31.00;66.70
51908;DHT22;39320;53.214;6.556;2022-08-14T15:38:37;30.90;66.10
51908;DHT22;39320;53.214;6.556;2022-08-14T15:41:03;30.90;66.60
51908;DHT22;39320;53.214;6.556;2022-08-14T15:43:30;30.80;67.10
51908;DHT22;39320;53.214;6.556;2022-08-14T15:46:06;30.80;67.10
51908;DHT22;39320;53.214;6.556;2022-08-14T15:48:33;30.80;66.90
51908;DHT22;39320;53.214;6.556;2022-08-14T15:51:01;30.70;66.40
51908;DHT22;39320;53.214;6.556;2022-08-14T15:53:27;30.60;66.00